ANA421 RJOO-RJFF
Flight info
| Callsign | ANA421 |
|---|---|
| Flight time | 0h 57m |
| Altitude | 28000 |
| Route | TIGER SUMAR AYAME SETOH SOUJA Y281 STOUT Y20 KIRIN |
| Aircraft | B738/M-SDE2E3FGHIRWXY/LB1 |
Departure
| Time | 2026-05-07 13:04 |
|---|---|
| Airport | Osaka Itami International Airport (RJOO) |
Arrival
| Time | 2026-05-07 14:02 |
|---|---|
| Airport | Fukuoka Airport (RJFF) |
| Time | Latitude | Longitude | Altitude | Speed | Heading |
|---|---|---|---|---|---|
| 2026-05-07 12:23 | 34.78749 | 135.44283 | 47 ft | 0 kts | 60° |
| 2026-05-07 12:56 | 34.78744 | 135.44273 | 47 ft | 3 kts | 59° |
| 2026-05-07 12:56 | 34.78734 | 135.44252 | 45 ft | 3 kts | 59° |
| 2026-05-07 12:56 | 34.78724 | 135.44231 | 47 ft | 3 kts | 61° |
| 2026-05-07 12:56 | 34.78714 | 135.44209 | 45 ft | 3 kts | 66° |
| 2026-05-07 12:57 | 34.78708 | 135.44186 | 44 ft | 3 kts | 84° |
| 2026-05-07 12:57 | 34.78709 | 135.44167 | 45 ft | 2 kts | 127° |
| 2026-05-07 12:57 | 34.78711 | 135.44164 | 45 ft | 0 kts | 135° |
| 2026-05-07 13:00 | 34.78708 | 135.44168 | 44 ft | 2 kts | 135° |
| 2026-05-07 13:00 | 34.78676 | 135.44206 | 47 ft | 11 kts | 135° |
| 2026-05-07 13:01 | 34.78602 | 135.44294 | 47 ft | 17 kts | 135° |
| 2026-05-07 13:01 | 34.78493 | 135.44335 | 48 ft | 17 kts | 180° |
| 2026-05-07 13:01 | 34.78376 | 135.44335 | 49 ft | 18 kts | 180° |
| 2026-05-07 13:01 | 34.78230 | 135.44335 | 48 ft | 23 kts | 180° |
| 2026-05-07 13:02 | 34.78098 | 135.44431 | 48 ft | 23 kts | 134° |
| 2026-05-07 13:02 | 34.77987 | 135.44564 | 45 ft | 22 kts | 136° |
| 2026-05-07 13:02 | 34.77880 | 135.44693 | 47 ft | 21 kts | 135° |
| 2026-05-07 13:02 | 34.77776 | 135.44819 | 47 ft | 21 kts | 135° |
| 2026-05-07 13:03 | 34.77665 | 135.44927 | 48 ft | 20 kts | 153° |
| 2026-05-07 13:03 | 34.77542 | 135.44997 | 48 ft | 17 kts | 155° |
| 2026-05-07 13:03 | 34.77452 | 135.45007 | 47 ft | 13 kts | 211° |
| 2026-05-07 13:03 | 34.77441 | 135.44915 | 50 ft | 15 kts | 312° |
| 2026-05-07 13:04 | 34.77620 | 135.44700 | 46 ft | 70 kts | 315° |
| 2026-05-07 13:04 | 34.78134 | 135.44075 | 50 ft | 136 kts | 315° |
| 2026-05-07 13:04 | 34.78906 | 135.43132 | 351 ft | 165 kts | 313° |
| 2026-05-07 13:04 | 34.79731 | 135.42124 | 1068 ft | 172 kts | 313° |
| 2026-05-07 13:05 | 34.80589 | 135.41056 | 1769 ft | 177 kts | 307° |
| 2026-05-07 13:05 | 34.81127 | 135.39745 | 2413 ft | 177 kts | 268° |
| 2026-05-07 13:05 | 34.80715 | 135.38363 | 2930 ft | 183 kts | 221° |
| 2026-05-07 13:05 | 34.79533 | 135.37814 | 3570 ft | 189 kts | 178° |
| 2026-05-07 13:06 | 34.78208 | 135.38061 | 4187 ft | 199 kts | 179° |
| 2026-05-07 13:06 | 34.76834 | 135.37906 | 4803 ft | 196 kts | 186° |
| 2026-05-07 13:06 | 34.75434 | 135.38208 | 5165 ft | 218 kts | 166° |
| 2026-05-07 13:06 | 34.73886 | 135.38268 | 5349 ft | 233 kts | 195° |
| 2026-05-07 13:07 | 34.72289 | 135.37781 | 5810 ft | 244 kts | 195° |
| 2026-05-07 13:07 | 34.70627 | 135.37308 | 6564 ft | 245 kts | 195° |
| 2026-05-07 13:07 | 34.68982 | 135.36759 | 7262 ft | 249 kts | 208° |
| 2026-05-07 13:07 | 34.67905 | 135.35673 | 7557 ft | 259 kts | 237° |
| 2026-05-07 13:08 | 34.67284 | 135.33616 | 8232 ft | 264 kts | 260° |
| 2026-05-07 13:08 | 34.67144 | 135.31385 | 9047 ft | 266 kts | 265° |
| 2026-05-07 13:08 | 34.67100 | 135.29135 | 9855 ft | 267 kts | 266° |
| 2026-05-07 13:08 | 34.67072 | 135.26849 | 10399 ft | 278 kts | 266° |
| 2026-05-07 13:09 | 34.67038 | 135.24392 | 10555 ft | 301 kts | 266° |
| 2026-05-07 13:09 | 34.66997 | 135.21791 | 10715 ft | 322 kts | 266° |
| 2026-05-07 13:09 | 34.66946 | 135.18984 | 10885 ft | 341 kts | 266° |
| 2026-05-07 13:09 | 34.66889 | 135.16061 | 11317 ft | 350 kts | 266° |
| 2026-05-07 13:10 | 34.66828 | 135.13090 | 11917 ft | 353 kts | 266° |
| 2026-05-07 13:10 | 34.66763 | 135.10103 | 12574 ft | 355 kts | 266° |
| 2026-05-07 13:10 | 34.66694 | 135.07092 | 13186 ft | 359 kts | 266° |
| 2026-05-07 13:10 | 34.66622 | 135.04039 | 13791 ft | 362 kts | 266° |
| 2026-05-07 13:11 | 34.66547 | 135.00968 | 14355 ft | 364 kts | 266° |
| 2026-05-07 13:11 | 34.66471 | 134.97889 | 14959 ft | 366 kts | 266° |
| 2026-05-07 13:11 | 34.66393 | 134.94782 | 15536 ft | 369 kts | 266° |
| 2026-05-07 13:11 | 34.66314 | 134.91664 | 16102 ft | 371 kts | 266° |
| 2026-05-07 13:12 | 34.66233 | 134.88514 | 16672 ft | 374 kts | 266° |
| 2026-05-07 13:12 | 34.66151 | 134.85351 | 17233 ft | 376 kts | 266° |
| 2026-05-07 13:12 | 34.66067 | 134.82161 | 17778 ft | 379 kts | 266° |
| 2026-05-07 13:12 | 34.65982 | 134.78950 | 18299 ft | 382 kts | 266° |
| 2026-05-07 13:13 | 34.65896 | 134.75722 | 18766 ft | 384 kts | 266° |
| 2026-05-07 13:13 | 34.65808 | 134.72472 | 19248 ft | 385 kts | 266° |
| 2026-05-07 13:13 | 34.65719 | 134.69212 | 19723 ft | 387 kts | 266° |
| 2026-05-07 13:13 | 34.65630 | 134.65972 | 20183 ft | 389 kts | 265° |
| 2026-05-07 13:14 | 34.65539 | 134.62678 | 20634 ft | 391 kts | 265° |
| 2026-05-07 13:14 | 34.65446 | 134.59370 | 21077 ft | 394 kts | 265° |
| 2026-05-07 13:14 | 34.65351 | 134.56035 | 21523 ft | 396 kts | 265° |
| 2026-05-07 13:14 | 34.65255 | 134.52685 | 21946 ft | 398 kts | 265° |
| 2026-05-07 13:15 | 34.65159 | 134.49317 | 22351 ft | 400 kts | 265° |
| 2026-05-07 13:15 | 34.65061 | 134.45926 | 22769 ft | 403 kts | 265° |
| 2026-05-07 13:15 | 34.64962 | 134.42515 | 23177 ft | 405 kts | 265° |
| 2026-05-07 13:15 | 34.64861 | 134.39089 | 23553 ft | 407 kts | 265° |
| 2026-05-07 13:16 | 34.64758 | 134.35643 | 23870 ft | 410 kts | 265° |
| 2026-05-07 13:16 | 34.64653 | 134.32180 | 24189 ft | 411 kts | 265° |
| 2026-05-07 13:16 | 34.64546 | 134.28695 | 24509 ft | 413 kts | 265° |
| 2026-05-07 13:16 | 34.64438 | 134.25198 | 24816 ft | 415 kts | 265° |
| 2026-05-07 13:17 | 34.64329 | 134.21688 | 25118 ft | 417 kts | 265° |
| 2026-05-07 13:17 | 34.64217 | 134.18155 | 25422 ft | 419 kts | 265° |
| 2026-05-07 13:17 | 34.64105 | 134.14614 | 25740 ft | 420 kts | 266° |
| 2026-05-07 13:17 | 34.63992 | 134.11076 | 26170 ft | 419 kts | 266° |
| 2026-05-07 13:18 | 34.63878 | 134.07551 | 26658 ft | 416 kts | 266° |
| 2026-05-07 13:18 | 34.63764 | 134.04042 | 27089 ft | 415 kts | 266° |
| 2026-05-07 13:18 | 34.63648 | 134.00544 | 27504 ft | 415 kts | 266° |
| 2026-05-07 13:18 | 34.63532 | 133.97047 | 27896 ft | 414 kts | 266° |
| 2026-05-07 13:19 | 34.63415 | 133.93559 | 27917 ft | 413 kts | 266° |
| 2026-05-07 13:19 | 34.63297 | 133.90067 | 27934 ft | 413 kts | 266° |
| 2026-05-07 13:19 | 34.63180 | 133.86627 | 27944 ft | 413 kts | 266° |
| 2026-05-07 13:19 | 34.63060 | 133.83139 | 27951 ft | 413 kts | 266° |
| 2026-05-07 13:20 | 34.62940 | 133.79652 | 27942 ft | 414 kts | 266° |
| 2026-05-07 13:20 | 34.62818 | 133.76160 | 27939 ft | 414 kts | 266° |
| 2026-05-07 13:20 | 34.62588 | 133.72670 | 27935 ft | 414 kts | 260° |
| 2026-05-07 13:20 | 34.62073 | 133.69233 | 27941 ft | 413 kts | 258° |
| 2026-05-07 13:21 | 34.61528 | 133.65808 | 27931 ft | 413 kts | 258° |
| 2026-05-07 13:21 | 34.60980 | 133.62381 | 27935 ft | 413 kts | 258° |
| 2026-05-07 13:21 | 34.60437 | 133.58963 | 27928 ft | 413 kts | 258° |
| 2026-05-07 13:21 | 34.59895 | 133.55532 | 27927 ft | 413 kts | 258° |
| 2026-05-07 13:22 | 34.59357 | 133.52106 | 27920 ft | 413 kts | 258° |
| 2026-05-07 13:22 | 34.58822 | 133.48685 | 27924 ft | 413 kts | 258° |
| 2026-05-07 13:22 | 34.58287 | 133.45261 | 27925 ft | 412 kts | 258° |
| 2026-05-07 13:22 | 34.57752 | 133.41842 | 27928 ft | 412 kts | 258° |
| 2026-05-07 13:23 | 34.57224 | 133.38466 | 27926 ft | 412 kts | 258° |
| 2026-05-07 13:23 | 34.56688 | 133.35053 | 27929 ft | 412 kts | 258° |
| 2026-05-07 13:23 | 34.56150 | 133.31632 | 27918 ft | 412 kts | 258° |
| 2026-05-07 13:23 | 34.55612 | 133.28218 | 27931 ft | 412 kts | 258° |
| 2026-05-07 13:24 | 34.55073 | 133.24803 | 27931 ft | 412 kts | 258° |
| 2026-05-07 13:24 | 34.54532 | 133.21382 | 27930 ft | 412 kts | 258° |
| 2026-05-07 13:24 | 34.53992 | 133.17974 | 27937 ft | 412 kts | 258° |
| 2026-05-07 13:24 | 34.53632 | 133.15707 | 27936 ft | 412 kts | 258° |
| 2026-05-07 13:25 | 34.53090 | 133.12296 | 27943 ft | 412 kts | 258° |
| 2026-05-07 13:25 | 34.52546 | 133.08882 | 27954 ft | 412 kts | 258° |
| 2026-05-07 13:25 | 34.52002 | 133.05475 | 27964 ft | 412 kts | 258° |
| 2026-05-07 13:25 | 34.51456 | 133.02058 | 27963 ft | 412 kts | 258° |
| 2026-05-07 13:26 | 34.50909 | 132.98644 | 27967 ft | 412 kts | 258° |
| 2026-05-07 13:26 | 34.50362 | 132.95234 | 27975 ft | 412 kts | 258° |
| 2026-05-07 13:26 | 34.49813 | 132.91823 | 27964 ft | 413 kts | 258° |
| 2026-05-07 13:26 | 34.49263 | 132.88403 | 27969 ft | 412 kts | 258° |
| 2026-05-07 13:27 | 34.48713 | 132.84994 | 27974 ft | 413 kts | 258° |
| 2026-05-07 13:27 | 34.48161 | 132.81576 | 27969 ft | 412 kts | 258° |
| 2026-05-07 13:27 | 34.47608 | 132.78163 | 27961 ft | 413 kts | 258° |
| 2026-05-07 13:27 | 34.47055 | 132.74755 | 27957 ft | 412 kts | 258° |
| 2026-05-07 13:28 | 34.46507 | 132.71388 | 27959 ft | 412 kts | 258° |
| 2026-05-07 13:28 | 34.45952 | 132.67981 | 27960 ft | 412 kts | 258° |
| 2026-05-07 13:28 | 34.45396 | 132.64574 | 27944 ft | 412 kts | 258° |
| 2026-05-07 13:28 | 34.44837 | 132.61162 | 27938 ft | 412 kts | 258° |
| 2026-05-07 13:29 | 34.44279 | 132.57752 | 27937 ft | 412 kts | 258° |
| 2026-05-07 13:29 | 34.43721 | 132.54350 | 27937 ft | 412 kts | 258° |
| 2026-05-07 13:29 | 34.43162 | 132.50949 | 27928 ft | 412 kts | 258° |
| 2026-05-07 13:29 | 34.42622 | 132.47540 | 27923 ft | 412 kts | 261° |
| 2026-05-07 13:30 | 34.42681 | 132.44070 | 27930 ft | 416 kts | 278° |
| 2026-05-07 13:30 | 34.43549 | 132.40707 | 27945 ft | 420 kts | 288° |
| 2026-05-07 13:30 | 34.44722 | 132.37453 | 27939 ft | 422 kts | 290° |
| 2026-05-07 13:30 | 34.45963 | 132.34236 | 27938 ft | 421 kts | 291° |
| 2026-05-07 13:31 | 34.47227 | 132.31035 | 27935 ft | 422 kts | 291° |
| 2026-05-07 13:31 | 34.48502 | 132.27831 | 27935 ft | 422 kts | 291° |
| 2026-05-07 13:31 | 34.49781 | 132.24627 | 27927 ft | 422 kts | 291° |
| 2026-05-07 13:31 | 34.51043 | 132.21424 | 27929 ft | 421 kts | 288° |
| 2026-05-07 13:32 | 34.51744 | 132.18031 | 27942 ft | 413 kts | 272° |
| 2026-05-07 13:32 | 34.51727 | 132.14568 | 27959 ft | 410 kts | 264° |
| 2026-05-07 13:32 | 34.51481 | 132.11169 | 27934 ft | 410 kts | 263° |
| 2026-05-07 13:32 | 34.51172 | 132.07747 | 27931 ft | 402 kts | 261° |
| 2026-05-07 13:33 | 34.50540 | 132.04484 | 27947 ft | 398 kts | 250° |
| 2026-05-07 13:33 | 34.49561 | 132.01317 | 27949 ft | 406 kts | 249° |
| 2026-05-07 13:33 | 34.48516 | 131.98103 | 27933 ft | 411 kts | 249° |
| 2026-05-07 13:33 | 34.47471 | 131.94876 | 27944 ft | 411 kts | 249° |
| 2026-05-07 13:34 | 34.46450 | 131.91651 | 27937 ft | 410 kts | 249° |
| 2026-05-07 13:34 | 34.44461 | 131.85181 | 27619 ft | 408 kts | 250° |
| 2026-05-07 13:34 | 34.43487 | 131.81958 | 27421 ft | 408 kts | 250° |
| 2026-05-07 13:35 | 34.42518 | 131.78734 | 27036 ft | 406 kts | 250° |
| 2026-05-07 13:35 | 34.41561 | 131.75545 | 26580 ft | 398 kts | 250° |
| 2026-05-07 13:35 | 34.40621 | 131.72417 | 26079 ft | 392 kts | 250° |
| 2026-05-07 13:35 | 34.39696 | 131.69339 | 25567 ft | 386 kts | 250° |
| 2026-05-07 13:36 | 34.38792 | 131.66340 | 25091 ft | 382 kts | 250° |
| 2026-05-07 13:36 | 34.37876 | 131.63301 | 24598 ft | 378 kts | 250° |
| 2026-05-07 13:36 | 34.36992 | 131.60370 | 24104 ft | 374 kts | 250° |
| 2026-05-07 13:36 | 34.36104 | 131.57429 | 23624 ft | 371 kts | 250° |
| 2026-05-07 13:37 | 34.35220 | 131.54510 | 23083 ft | 367 kts | 250° |
| 2026-05-07 13:37 | 34.34348 | 131.51631 | 22567 ft | 362 kts | 250° |
| 2026-05-07 13:37 | 34.33486 | 131.48787 | 22065 ft | 358 kts | 250° |
| 2026-05-07 13:37 | 34.32637 | 131.45986 | 21763 ft | 349 kts | 250° |
| 2026-05-07 13:38 | 34.31817 | 131.43282 | 21625 ft | 336 kts | 249° |
| 2026-05-07 13:38 | 34.31022 | 131.40668 | 21469 ft | 325 kts | 249° |
| 2026-05-07 13:38 | 34.30255 | 131.38147 | 21347 ft | 314 kts | 249° |
| 2026-05-07 13:38 | 34.29512 | 131.35705 | 21213 ft | 304 kts | 249° |
| 2026-05-07 13:39 | 34.28791 | 131.33338 | 21095 ft | 295 kts | 249° |
| 2026-05-07 13:39 | 34.28091 | 131.31044 | 20968 ft | 286 kts | 249° |
| 2026-05-07 13:39 | 34.27413 | 131.28823 | 20866 ft | 277 kts | 249° |
| 2026-05-07 13:39 | 34.26755 | 131.26669 | 20756 ft | 270 kts | 249° |
| 2026-05-07 13:40 | 34.26109 | 131.24554 | 20666 ft | 271 kts | 249° |
| 2026-05-07 13:40 | 34.25428 | 131.22331 | 20598 ft | 294 kts | 249° |
| 2026-05-07 13:40 | 34.24689 | 131.19918 | 20486 ft | 317 kts | 249° |
| 2026-05-07 13:40 | 34.23907 | 131.17365 | 20328 ft | 328 kts | 249° |
| 2026-05-07 13:41 | 34.23123 | 131.14807 | 19958 ft | 329 kts | 249° |
| 2026-05-07 13:41 | 34.22331 | 131.12224 | 19585 ft | 327 kts | 249° |
| 2026-05-07 13:41 | 34.21541 | 131.09651 | 19198 ft | 325 kts | 249° |
| 2026-05-07 13:41 | 34.20758 | 131.07101 | 18814 ft | 322 kts | 249° |
| 2026-05-07 13:42 | 34.19981 | 131.04576 | 18414 ft | 319 kts | 248° |
| 2026-05-07 13:42 | 34.19211 | 131.02076 | 18017 ft | 316 kts | 248° |
| 2026-05-07 13:42 | 34.18407 | 130.99617 | 17998 ft | 317 kts | 246° |
| 2026-05-07 13:42 | 34.17532 | 130.97164 | 17935 ft | 317 kts | 245° |
| 2026-05-07 13:43 | 34.16662 | 130.94766 | 17921 ft | 306 kts | 246° |
| 2026-05-07 13:43 | 34.15787 | 130.92492 | 17916 ft | 291 kts | 243° |
| 2026-05-07 13:43 | 34.14874 | 130.90347 | 17656 ft | 286 kts | 242° |
| 2026-05-07 13:43 | 34.13947 | 130.88222 | 17230 ft | 286 kts | 242° |
| 2026-05-07 13:44 | 34.13021 | 130.86121 | 16792 ft | 287 kts | 242° |
| 2026-05-07 13:44 | 34.12080 | 130.84000 | 16324 ft | 284 kts | 242° |
| 2026-05-07 13:44 | 34.11154 | 130.81924 | 15873 ft | 279 kts | 242° |
| 2026-05-07 13:44 | 34.10226 | 130.79855 | 15321 ft | 284 kts | 242° |
| 2026-05-07 13:45 | 34.09272 | 130.77740 | 14800 ft | 290 kts | 242° |
| 2026-05-07 13:45 | 34.08301 | 130.75598 | 14393 ft | 292 kts | 242° |
| 2026-05-07 13:45 | 34.07322 | 130.73448 | 13977 ft | 293 kts | 242° |
| 2026-05-07 13:45 | 34.06337 | 130.71297 | 13544 ft | 293 kts | 242° |
| 2026-05-07 13:46 | 34.05346 | 130.69141 | 13083 ft | 294 kts | 242° |
| 2026-05-07 13:46 | 34.04351 | 130.66984 | 12630 ft | 295 kts | 242° |
| 2026-05-07 13:46 | 34.03352 | 130.64824 | 12178 ft | 295 kts | 242° |
| 2026-05-07 13:46 | 34.02349 | 130.62663 | 11740 ft | 295 kts | 242° |
| 2026-05-07 13:47 | 34.01348 | 130.60511 | 11292 ft | 292 kts | 242° |
| 2026-05-07 13:47 | 34.00362 | 130.58400 | 10844 ft | 285 kts | 242° |
| 2026-05-07 13:47 | 33.99398 | 130.56347 | 10421 ft | 279 kts | 242° |
| 2026-05-07 13:47 | 33.98450 | 130.54340 | 10063 ft | 270 kts | 242° |
| 2026-05-07 13:48 | 33.97537 | 130.52418 | 9954 ft | 261 kts | 242° |
| 2026-05-07 13:48 | 33.96635 | 130.50522 | 9663 ft | 259 kts | 242° |
| 2026-05-07 13:48 | 33.95757 | 130.48677 | 9434 ft | 255 kts | 242° |
| 2026-05-07 13:48 | 33.94883 | 130.46834 | 9134 ft | 253 kts | 242° |
| 2026-05-07 13:49 | 33.94009 | 130.44987 | 8792 ft | 254 kts | 242° |
| 2026-05-07 13:49 | 33.93142 | 130.43142 | 8477 ft | 253 kts | 242° |
| 2026-05-07 13:49 | 33.92281 | 130.41298 | 8193 ft | 252 kts | 242° |
| 2026-05-07 13:49 | 33.91425 | 130.39454 | 7871 ft | 252 kts | 242° |
| 2026-05-07 13:50 | 33.90577 | 130.37612 | 7568 ft | 252 kts | 242° |
| 2026-05-07 13:50 | 33.89734 | 130.35769 | 7274 ft | 251 kts | 242° |
| 2026-05-07 13:50 | 33.88899 | 130.33928 | 6989 ft | 250 kts | 242° |
| 2026-05-07 13:50 | 33.88068 | 130.32082 | 6674 ft | 251 kts | 242° |
| 2026-05-07 13:51 | 33.87244 | 130.30233 | 6377 ft | 251 kts | 242° |
| 2026-05-07 13:51 | 33.86425 | 130.28383 | 6112 ft | 249 kts | 242° |
| 2026-05-07 13:51 | 33.85614 | 130.26542 | 6031 ft | 250 kts | 242° |
| 2026-05-07 13:51 | 33.84800 | 130.24688 | 5995 ft | 250 kts | 242° |
| 2026-05-07 13:52 | 33.83993 | 130.22843 | 5990 ft | 248 kts | 242° |
| 2026-05-07 13:52 | 33.83198 | 130.21024 | 5990 ft | 249 kts | 242° |
| 2026-05-07 13:52 | 33.82392 | 130.19185 | 5984 ft | 246 kts | 242° |
| 2026-05-07 13:52 | 33.81613 | 130.17401 | 5974 ft | 235 kts | 242° |
| 2026-05-07 13:53 | 33.80852 | 130.15707 | 5968 ft | 227 kts | 235° |
| 2026-05-07 13:53 | 33.79665 | 130.14483 | 5880 ft | 231 kts | 206° |
| 2026-05-07 13:53 | 33.78061 | 130.14175 | 5602 ft | 240 kts | 178° |
| 2026-05-07 13:53 | 33.76404 | 130.14487 | 5341 ft | 241 kts | 173° |
| 2026-05-07 13:54 | 33.74766 | 130.14873 | 5072 ft | 240 kts | 172° |
| 2026-05-07 13:54 | 33.73210 | 130.15630 | 4782 ft | 245 kts | 146° |
| 2026-05-07 13:54 | 33.72130 | 130.17197 | 4541 ft | 243 kts | 124° |
| 2026-05-07 13:54 | 33.71310 | 130.18956 | 4291 ft | 242 kts | 122° |
| 2026-05-07 13:55 | 33.70507 | 130.20740 | 4045 ft | 243 kts | 122° |
| 2026-05-07 13:55 | 33.69719 | 130.22503 | 3803 ft | 243 kts | 122° |
| 2026-05-07 13:55 | 33.68917 | 130.24288 | 3557 ft | 242 kts | 122° |
| 2026-05-07 13:55 | 33.68126 | 130.26049 | 3348 ft | 236 kts | 122° |
| 2026-05-07 13:56 | 33.67360 | 130.27770 | 3091 ft | 232 kts | 122° |
| 2026-05-07 13:56 | 33.66598 | 130.29483 | 2840 ft | 234 kts | 122° |
| 2026-05-07 13:56 | 33.65825 | 130.31213 | 2589 ft | 235 kts | 122° |
| 2026-05-07 13:56 | 33.65038 | 130.32934 | 2347 ft | 235 kts | 125° |
| 2026-05-07 13:57 | 33.64079 | 130.34483 | 2087 ft | 227 kts | 136° |
| 2026-05-07 13:57 | 33.62923 | 130.35726 | 1830 ft | 219 kts | 143° |
| 2026-05-07 13:57 | 33.61775 | 130.36889 | 1592 ft | 212 kts | 143° |
| 2026-05-07 13:57 | 33.60647 | 130.37888 | 1521 ft | 192 kts | 148° |
| 2026-05-07 13:58 | 33.59593 | 130.38753 | 1495 ft | 176 kts | 149° |
| 2026-05-07 13:58 | 33.58581 | 130.39544 | 1521 ft | 169 kts | 150° |
| 2026-05-07 13:58 | 33.57625 | 130.40287 | 1536 ft | 158 kts | 150° |
| 2026-05-07 13:58 | 33.56710 | 130.41005 | 1516 ft | 156 kts | 150° |
| 2026-05-07 13:59 | 33.55809 | 130.41710 | 1509 ft | 154 kts | 150° |
| 2026-05-07 13:59 | 33.54921 | 130.42401 | 1516 ft | 155 kts | 150° |
| 2026-05-07 13:59 | 33.54012 | 130.43117 | 1515 ft | 157 kts | 149° |
| 2026-05-07 13:59 | 33.53095 | 130.43828 | 1518 ft | 157 kts | 150° |
| 2026-05-07 14:00 | 33.52338 | 130.44760 | 1484 ft | 158 kts | 118° |
| 2026-05-07 14:00 | 33.52159 | 130.46066 | 1378 ft | 164 kts | 79° |
| 2026-05-07 14:00 | 33.52696 | 130.47235 | 1234 ft | 162 kts | 43° |
| 2026-05-07 14:00 | 33.53682 | 130.47770 | 1101 ft | 157 kts | 4° |
| 2026-05-07 14:01 | 33.54777 | 130.47600 | 877 ft | 158 kts | 340° |
| 2026-05-07 14:01 | 33.55733 | 130.47002 | 595 ft | 153 kts | 331° |
| 2026-05-07 14:01 | 33.56646 | 130.46391 | 327 ft | 149 kts | 329° |
| 2026-05-07 14:01 | 33.57546 | 130.45778 | 90 ft | 149 kts | 330° |
| 2026-05-07 14:02 | 33.58396 | 130.45200 | 33 ft | 119 kts | 330° |
| 2026-05-07 14:02 | 33.58934 | 130.44832 | 26 ft | 58 kts | 331° |
| 2026-05-07 14:02 | 33.59151 | 130.44767 | 24 ft | 27 kts | 358° |
| 2026-05-07 14:02 | 33.59258 | 130.44766 | 21 ft | 9 kts | 1° |
| 2026-05-07 14:03 | 33.59317 | 130.44767 | 23 ft | 8 kts | 0° |
| 2026-05-07 14:03 | 33.59371 | 130.44770 | 25 ft | 8 kts | 10° |
| 2026-05-07 14:03 | 33.59414 | 130.44804 | 24 ft | 8 kts | 62° |
| 2026-05-07 14:03 | 33.59430 | 130.44862 | 27 ft | 7 kts | 66° |
| 2026-05-07 14:04 | 33.59449 | 130.44901 | 27 ft | 4 kts | 59° |
| 2026-05-07 14:04 | 33.59454 | 130.44913 | 27 ft | 1 kts | 60° |
| 2026-05-07 14:04 | 33.59457 | 130.44918 | 24 ft | 0 kts | 60° |